עמוד ראשי
METAR-TAF:

METAR-TAF

שדות תעופה :

Nenana, אלסקה, ארצות הברית

קו רוחב: 64-33N, קו אורך: 149-05W, גובה: 110מטר

תצפית מזג אוויר נוכחית

הדו"ח נערך לפני 42דקות, בשעה 05:53 UTC
רוח 5קשר מכיוון דרום-מערב
טמפרטורת 19 צלסיוס
לחות 68%
לחץ 1012 hPa
ראות: 16.1קילומטר
שמיים נקיים
גשם קל

METAR: PANN 250553Z AUTO 23005KT 10SM -RA CLR 19/13 A2988 RMK AO2 RAB03 SLP122 P0000 60035 T01940133 10256 20172 51006 TSNO $

זמן: 22:35 (06:35 UTC)


TAF: חסר

תצפיות ותחזיות מזג אוויר לגבי יותר מ- 4,000 שדות תעופה ברחבי העולם. דוחות METAR ו- TAF.

התחנות הזמינות מסומנות בנקודות צהובות ואדומות על גבי המפה.

העבר את העכבר לנקודה הצבעונית על מנת לראות את שם התחנה.

לאחר מכן, לחץ כדי לראות את תוכן ואת תחזיות מזג האוויר.

כדי לשנות את המפה: לחץ על הכפתורים הירוקים עם הפלוס השחור כדי להתקרב; על הכפתור הירוק עם המקף כדי להתרחק; או בחיצים הירוקים למפות סמוכות.


METAR-TAF: